South Newbury, Vermont
Current Conditions -  °F | °C
As of 11:51 AM on Thursday 30 Oct 2014 (Local Time) from KMPV Reporting Station
Broken Clouds Broken Clouds  
Wind Chill: 41°   Ceiling: 3300
Heat Index: 46°   Visibility: 10mi
Dew Point: 37°   Wind: 9mph
Humidity: 71%   Direction: 290°WNW
Pressure: 29.97"   Gusts: NA
Location:  44.1081°N, 72.1208°W
Report Text: KMPV 301551Z AUTO 29008KT 260V330 10SM BKN033 08/03 A2997 RMK AO2 SLP159 T00780028
Loading
Personal Weather Stations






























Interactive Weather Map
Tropical Storm Tracking
New forecast layout! Learn more

10-Day Weather Forecast

Advertisements
Track Severe Weather on mobile